sensor_id;sensor_type;location;lat;lon;timestamp;P1;durP1;ratioP1;P2;durP2;ratioP2
18653;SDS011;9456;47.824;16.228;2022-09-04T06:38:32;4.30;;;4.00;;
18653;SDS011;9456;47.824;16.228;2022-09-04T06:41:16;3.93;;;3.53;;
18653;SDS011;9456;47.824;16.228;2022-09-04T06:43:46;4.00;;;3.80;;
18653;SDS011;9456;47.824;16.228;2022-09-04T06:46:18;4.20;;;3.60;;
18653;SDS011;9456;47.824;16.228;2022-09-04T06:48:58;3.40;;;3.20;;
18653;SDS011;9456;47.824;16.228;2022-09-04T06:51:31;3.50;;;3.30;;
18653;SDS011;9456;47.824;16.228;2022-09-04T06:54:03;3.87;;;3.63;;
18653;SDS011;9456;47.824;16.228;2022-09-04T06:56:40;3.97;;;3.67;;
18653;SDS011;9456;47.824;16.228;2022-09-04T07:02:00;4.17;;;3.83;;
18653;SDS011;9456;47.824;16.228;2022-09-04T07:04:35;4.10;;;3.80;;
18653;SDS011;9456;47.824;16.228;2022-09-04T07:07:06;3.97;;;3.67;;
18653;SDS011;9456;47.824;16.228;2022-09-04T07:09:42;4.20;;;3.97;;
18653;SDS011;9456;47.824;16.228;2022-09-04T07:15:15;3.97;;;3.63;;
18653;SDS011;9456;47.824;16.228;2022-09-04T07:17:51;3.50;;;3.30;;
18653;SDS011;9456;47.824;16.228;2022-09-04T07:20:24;3.87;;;3.57;;
18653;SDS011;9456;47.824;16.228;2022-09-04T07:25:43;4.00;;;3.70;;
18653;SDS011;9456;47.824;16.228;2022-09-04T07:28:17;3.30;;;3.10;;
18653;SDS011;9456;47.824;16.228;2022-09-04T07:30:48;3.40;;;3.10;;
18653;SDS011;9456;47.824;16.228;2022-09-04T07:33:19;3.60;;;3.37;;
18653;SDS011;9456;47.824;16.228;2022-09-04T07:35:49;3.60;;;2.90;;
18653;SDS011;9456;47.824;16.228;2022-09-04T07:38:20;4.20;;;3.23;;
18653;SDS011;9456;47.824;16.228;2022-09-04T07:40:52;3.30;;;3.10;;
18653;SDS011;9456;47.824;16.228;2022-09-04T07:43:23;3.37;;;3.17;;
18653;SDS011;9456;47.824;16.228;2022-09-04T07:45:56;2.80;;;2.60;;
18653;SDS011;9456;47.824;16.228;2022-09-04T07:48:28;2.93;;;2.73;;
18653;SDS011;9456;47.824;16.228;2022-09-04T07:50:57;2.57;;;2.47;;
18653;SDS011;9456;47.824;16.228;2022-09-04T07:53:45;3.22;;;2.67;;
18653;SDS011;9456;47.824;16.228;2022-09-04T07:56:21;2.40;;;2.13;;
18653;SDS011;9456;47.824;16.228;2022-09-04T07:58:55;2.35;;;2.25;;
18653;SDS011;9456;47.824;16.228;2022-09-04T08:01:31;2.33;;;2.22;;
18653;SDS011;9456;47.824;16.228;2022-09-04T08:04:17;3.00;;;2.70;;
18653;SDS011;9456;47.824;16.228;2022-09-04T08:06:49;2.78;;;2.30;;
18653;SDS011;9456;47.824;16.228;2022-09-04T08:09:27;2.58;;;2.45;;
18653;SDS011;9456;47.824;16.228;2022-09-04T08:12:03;2.60;;;2.50;;
18653;SDS011;9456;47.824;16.228;2022-09-04T08:14:40;2.53;;;2.42;;
18653;SDS011;9456;47.824;16.228;2022-09-04T08:19:53;3.05;;;2.85;;
18653;SDS011;9456;47.824;16.228;2022-09-04T08:22:25;2.65;;;2.50;;
18653;SDS011;9456;47.824;16.228;2022-09-04T08:24:59;2.90;;;2.50;;
18653;SDS011;9456;47.824;16.228;2022-09-04T08:27:38;2.40;;;2.30;;
18653;SDS011;9456;47.824;16.228;2022-09-04T08:30:09;2.13;;;2.00;;
18653;SDS011;9456;47.824;16.228;2022-09-04T08:32:46;1999.90;;;275.65;;
18653;SDS011;9456;47.824;16.228;2022-09-04T08:35:21;1999.90;;;272.17;;
18653;SDS011;9456;47.824;16.228;2022-09-04T08:37:53;1999.90;;;239.02;;
18653;SDS011;9456;47.824;16.228;2022-09-04T08:40:32;664.15;;;56.00;;
18653;SDS011;9456;47.824;16.228;2022-09-04T08:43:14;1999.90;;;189.45;;
18653;SDS011;9456;47.824;16.228;2022-09-04T08:46:04;1017.67;;;108.15;;
18653;SDS011;9456;47.824;16.228;2022-09-04T08:48:55;518.95;;;218.65;;
18653;SDS011;9456;47.824;16.228;2022-09-04T08:51:44;751.50;;;328.15;;
18653;SDS011;9456;47.824;16.228;2022-09-04T08:57:27;2.75;;;2.55;;
18653;SDS011;9456;47.824;16.228;2022-09-04T09:08:33;1999.90;;;999.90;;
18653;SDS011;9456;47.824;16.228;2022-09-04T09:11:12;1999.90;;;999.90;;
18653;SDS011;9456;47.824;16.228;2022-09-04T09:13:48;1999.90;;;999.90;;
18653;SDS011;9456;47.824;16.228;2022-09-04T09:16:19;1999.90;;;999.90;;
18653;SDS011;9456;47.824;16.228;2022-09-04T09:18:56;1999.90;;;999.90;;
18653;SDS011;9456;47.824;16.228;2022-09-04T09:21:38;1999.90;;;999.90;;
18653;SDS011;9456;47.824;16.228;2022-09-04T09:24:22;1999.90;;;999.90;;
18653;SDS011;9456;47.824;16.228;2022-09-04T09:27:04;1999.90;;;999.90;;
18653;SDS011;9456;47.824;16.228;2022-09-04T09:32:39;1999.90;;;999.90;;
18653;SDS011;9456;47.824;16.228;2022-09-04T09:49:23;1999.90;;;999.90;;
18653;SDS011;9456;47.824;16.228;2022-09-04T09:52:01;2.70;;;2.60;;
18653;SDS011;9456;47.824;16.228;2022-09-04T09:57:29;2.50;;;2.37;;
18653;SDS011;9456;47.824;16.228;2022-09-04T10:00:07;2.70;;;2.60;;
18653;SDS011;9456;47.824;16.228;2022-09-04T10:02:43;2.80;;;2.60;;
18653;SDS011;9456;47.824;16.228;2022-09-04T10:05:31;2.33;;;2.23;;
18653;SDS011;9456;47.824;16.228;2022-09-04T10:08:23;3.93;;;2.90;;
18653;SDS011;9456;47.824;16.228;2022-09-04T10:11:04;3.07;;;2.77;;
18653;SDS011;9456;47.824;16.228;2022-09-04T10:13:43;2.70;;;2.50;;
18653;SDS011;9456;47.824;16.228;2022-09-04T10:16:18;2.30;;;2.20;;
18653;SDS011;9456;47.824;16.228;2022-09-04T10:19:03;3.33;;;2.60;;
18653;SDS011;9456;47.824;16.228;2022-09-04T10:30:07;2.77;;;2.67;;
18653;SDS011;9456;47.824;16.228;2022-09-04T10:32:41;2.97;;;2.77;;
18653;SDS011;9456;47.824;16.228;2022-09-04T10:35:16;2.93;;;2.63;;
18653;SDS011;9456;47.824;16.228;2022-09-04T10:37:55;2.50;;;2.30;;
18653;SDS011;9456;47.824;16.228;2022-09-04T10:40:24;2.77;;;2.57;;
18653;SDS011;9456;47.824;16.228;2022-09-04T10:43:15;2.80;;;2.60;;
18653;SDS011;9456;47.824;16.228;2022-09-04T10:45:50;2.40;;;2.20;;
18653;SDS011;9456;47.824;16.228;2022-09-04T10:48:29;2.57;;;2.37;;
18653;SDS011;9456;47.824;16.228;2022-09-04T10:51:10;2.90;;;2.60;;
18653;SDS011;9456;47.824;16.228;2022-09-04T10:56:40;2.60;;;2.40;;
18653;SDS011;9456;47.824;16.228;2022-09-04T10:59:31;2.60;;;2.40;;
18653;SDS011;9456;47.824;16.228;2022-09-04T11:02:15;2.63;;;2.43;;
18653;SDS011;9456;47.824;16.228;2022-09-04T11:05:06;2.67;;;2.47;;
18653;SDS011;9456;47.824;16.228;2022-09-04T11:07:41;2.67;;;2.47;;
18653;SDS011;9456;47.824;16.228;2022-09-04T11:10:25;2.80;;;2.60;;
18653;SDS011;9456;47.824;16.228;2022-09-04T11:13:02;2.63;;;2.43;;
18653;SDS011;9456;47.824;16.228;2022-09-04T11:15:38;2.40;;;2.30;;
18653;SDS011;9456;47.824;16.228;2022-09-04T11:21:07;2.60;;;2.50;;
18653;SDS011;9456;47.824;16.228;2022-09-04T11:23:53;2.40;;;2.20;;
18653;SDS011;9456;47.824;16.228;2022-09-04T11:26:34;2.60;;;2.50;;
18653;SDS011;9456;47.824;16.228;2022-09-04T11:29:17;2.50;;;2.30;;
18653;SDS011;9456;47.824;16.228;2022-09-04T11:31:57;4.40;;;2.67;;
18653;SDS011;9456;47.824;16.228;2022-09-04T11:34:33;3.33;;;3.03;;
18653;SDS011;9456;47.824;16.228;2022-09-04T11:46:31;4.83;;;4.27;;
18653;SDS011;9456;47.824;16.228;2022-09-04T12:13:10;5.93;;;4.60;;
18653;SDS011;9456;47.824;16.228;2022-09-04T12:45:58;3.20;;;2.90;;
18653;SDS011;9456;47.824;16.228;2022-09-04T12:51:16;2.67;;;2.23;;
18653;SDS011;9456;47.824;16.228;2022-09-04T12:54:02;2.17;;;2.07;;
18653;SDS011;9456;47.824;16.228;2022-09-04T12:56:36;2.00;;;1.90;;
18653;SDS011;9456;47.824;16.228;2022-09-04T12:59:13;2.27;;;2.07;;
18653;SDS011;9456;47.824;16.228;2022-09-04T13:01:50;2.00;;;1.90;;
18653;SDS011;9456;47.824;16.228;2022-09-04T13:04:21;2.20;;;2.10;;
18653;SDS011;9456;47.824;16.228;2022-09-04T13:06:53;3.23;;;2.03;;
18653;SDS011;9456;47.824;16.228;2022-09-04T13:09:27;2.23;;;2.13;;
18653;SDS011;9456;47.824;16.228;2022-09-04T13:12:00;1.90;;;1.80;;
18653;SDS011;9456;47.824;16.228;2022-09-04T13:14:47;2.43;;;1.87;;
18653;SDS011;9456;47.824;16.228;2022-09-04T13:17:19;2.10;;;2.00;;
18653;SDS011;9456;47.824;16.228;2022-09-04T13:19:51;2.20;;;2.10;;
18653;SDS011;9456;47.824;16.228;2022-09-04T13:22:26;2.10;;;2.00;;
18653;SDS011;9456;47.824;16.228;2022-09-04T13:24:57;2.90;;;2.10;;
18653;SDS011;9456;47.824;16.228;2022-09-04T13:30:14;2.10;;;2.00;;
18653;SDS011;9456;47.824;16.228;2022-09-04T13:32:59;1.73;;;1.63;;
18653;SDS011;9456;47.824;16.228;2022-09-04T13:35:33;1.90;;;1.80;;
18653;SDS011;9456;47.824;16.228;2022-09-04T13:38:12;1.90;;;1.80;;
18653;SDS011;9456;47.824;16.228;2022-09-04T13:40:58;2.13;;;2.00;;
18653;SDS011;9456;47.824;16.228;2022-09-04T13:46:16;2.27;;;2.13;;
18653;SDS011;9456;47.824;16.228;2022-09-04T13:48:48;3.10;;;2.60;;
18653;SDS011;9456;47.824;16.228;2022-09-04T13:51:19;2.13;;;2.00;;
18653;SDS011;9456;47.824;16.228;2022-09-04T13:53:53;3.03;;;2.23;;
18653;SDS011;9456;47.824;16.228;2022-09-04T13:56:23;2.00;;;1.90;;
18653;SDS011;9456;47.824;16.228;2022-09-04T13:58:55;2.70;;;2.50;;
18653;SDS011;9456;47.824;16.228;2022-09-04T14:01:24;2.27;;;2.07;;
18653;SDS011;9456;47.824;16.228;2022-09-04T14:03:56;2.20;;;2.10;;
18653;SDS011;9456;47.824;16.228;2022-09-04T14:06:25;2.63;;;2.43;;
18653;SDS011;9456;47.824;16.228;2022-09-04T14:08:53;2.33;;;2.20;;
18653;SDS011;9456;47.824;16.228;2022-09-04T14:11:33;2.00;;;1.90;;
18653;SDS011;9456;47.824;16.228;2022-09-04T14:14:22;2.40;;;2.20;;
18653;SDS011;9456;47.824;16.228;2022-09-04T14:16:55;2.30;;;2.20;;
18653;SDS011;9456;47.824;16.228;2022-09-04T14:19:31;2.30;;;2.10;;
18653;SDS011;9456;47.824;16.228;2022-09-04T14:24:55;2.93;;;2.60;;
18653;SDS011;9456;47.824;16.228;2022-09-04T14:27:30;2.53;;;2.40;;
18653;SDS011;9456;47.824;16.228;2022-09-04T14:30:01;2.63;;;2.50;;
18653;SDS011;9456;47.824;16.228;2022-09-04T14:32:33;2.80;;;2.60;;
18653;SDS011;9456;47.824;16.228;2022-09-04T14:35:14;2.30;;;2.20;;
18653;SDS011;9456;47.824;16.228;2022-09-04T14:37:51;2.30;;;2.20;;
18653;SDS011;9456;47.824;16.228;2022-09-04T14:40:20;2.27;;;2.17;;
18653;SDS011;9456;47.824;16.228;2022-09-04T14:42:52;2.40;;;2.17;;
18653;SDS011;9456;47.824;16.228;2022-09-04T14:45:31;2.23;;;1.97;;
18653;SDS011;9456;47.824;16.228;2022-09-04T14:48:02;2.40;;;2.20;;
18653;SDS011;9456;47.824;16.228;2022-09-04T14:50:43;2.77;;;2.20;;
18653;SDS011;9456;47.824;16.228;2022-09-04T14:53:12;2.53;;;2.20;;
18653;SDS011;9456;47.824;16.228;2022-09-04T14:56:04;2.40;;;2.20;;
18653;SDS011;9456;47.824;16.228;2022-09-04T14:58:34;3.17;;;2.20;;
18653;SDS011;9456;47.824;16.228;2022-09-04T15:01:04;3.07;;;2.13;;
18653;SDS011;9456;47.824;16.228;2022-09-04T15:03:33;2.07;;;1.97;;
18653;SDS011;9456;47.824;16.228;2022-09-04T15:06:04;2.03;;;1.90;;
18653;SDS011;9456;47.824;16.228;2022-09-04T15:08:34;2.43;;;2.33;;
18653;SDS011;9456;47.824;16.228;2022-09-04T15:11:02;2.20;;;2.10;;
18653;SDS011;9456;47.824;16.228;2022-09-04T15:13:36;2.67;;;2.47;;
18653;SDS011;9456;47.824;16.228;2022-09-04T15:16:14;2.87;;;2.60;;
18653;SDS011;9456;47.824;16.228;2022-09-04T15:18:45;3.53;;;2.53;;
18653;SDS011;9456;47.824;16.228;2022-09-04T15:21:19;3.00;;;2.80;;
18653;SDS011;9456;47.824;16.228;2022-09-04T15:23:50;3.03;;;2.80;;
18653;SDS011;9456;47.824;16.228;2022-09-04T15:26:21;3.17;;;2.97;;
18653;SDS011;9456;47.824;16.228;2022-09-04T15:28:53;2.90;;;2.70;;
18653;SDS011;9456;47.824;16.228;2022-09-04T15:31:27;2.77;;;2.63;;
18653;SDS011;9456;47.824;16.228;2022-09-04T15:33:57;3.30;;;3.00;;
18653;SDS011;9456;47.824;16.228;2022-09-04T15:36:27;2.90;;;2.53;;
18653;SDS011;9456;47.824;16.228;2022-09-04T15:38:55;3.17;;;2.90;;
18653;SDS011;9456;47.824;16.228;2022-09-04T15:41:26;2.90;;;2.70;;
18653;SDS011;9456;47.824;16.228;2022-09-04T15:44:06;3.00;;;2.80;;
18653;SDS011;9456;47.824;16.228;2022-09-04T15:46:35;3.17;;;2.97;;
18653;SDS011;9456;47.824;16.228;2022-09-04T15:49:13;3.23;;;3.03;;
18653;SDS011;9456;47.824;16.228;2022-09-04T15:51:45;3.03;;;2.83;;
18653;SDS011;9456;47.824;16.228;2022-09-04T15:54:22;3.77;;;3.47;;
18653;SDS011;9456;47.824;16.228;2022-09-04T15:56:54;3.87;;;3.40;;
18653;SDS011;9456;47.824;16.228;2022-09-04T15:59:23;3.70;;;3.50;;
18653;SDS011;9456;47.824;16.228;2022-09-04T16:01:54;3.70;;;3.40;;
18653;SDS011;9456;47.824;16.228;2022-09-04T16:04:25;3.63;;;3.20;;
18653;SDS011;9456;47.824;16.228;2022-09-04T16:07:01;3.93;;;2.97;;
18653;SDS011;9456;47.824;16.228;2022-09-04T16:09:36;2.93;;;2.83;;
18653;SDS011;9456;47.824;16.228;2022-09-04T16:12:08;3.60;;;3.30;;
18653;SDS011;9456;47.824;16.228;2022-09-04T16:14:41;4.00;;;3.60;;
18653;SDS011;9456;47.824;16.228;2022-09-04T16:17:10;3.43;;;3.23;;
18653;SDS011;9456;47.824;16.228;2022-09-04T16:19:40;2.90;;;2.70;;
18653;SDS011;9456;47.824;16.228;2022-09-04T16:22:15;2.70;;;2.60;;
18653;SDS011;9456;47.824;16.228;2022-09-04T16:24:46;2.67;;;2.47;;
18653;SDS011;9456;47.824;16.228;2022-09-04T16:27:16;2.77;;;2.50;;
18653;SDS011;9456;47.824;16.228;2022-09-04T16:29:46;2.50;;;2.40;;
18653;SDS011;9456;47.824;16.228;2022-09-04T16:32:17;2.60;;;2.40;;
18653;SDS011;9456;47.824;16.228;2022-09-04T16:34:47;2.33;;;2.23;;
18653;SDS011;9456;47.824;16.228;2022-09-04T16:37:19;2.50;;;2.40;;
18653;SDS011;9456;47.824;16.228;2022-09-04T16:39:53;2.90;;;2.70;;
18653;SDS011;9456;47.824;16.228;2022-09-04T16:42:22;2.70;;;2.50;;
18653;SDS011;9456;47.824;16.228;2022-09-04T16:44:52;2.80;;;2.60;;
18653;SDS011;9456;47.824;16.228;2022-09-04T16:47:21;3.13;;;2.93;;
18653;SDS011;9456;47.824;16.228;2022-09-04T16:49:54;3.07;;;2.70;;
18653;SDS011;9456;47.824;16.228;2022-09-04T16:52:35;2.80;;;2.60;;
18653;SDS011;9456;47.824;16.228;2022-09-04T16:55:09;3.00;;;2.80;;
18653;SDS011;9456;47.824;16.228;2022-09-04T16:57:40;3.30;;;2.93;;
18653;SDS011;9456;47.824;16.228;2022-09-04T17:00:11;2.90;;;2.70;;
18653;SDS011;9456;47.824;16.228;2022-09-04T17:02:42;2.90;;;2.80;;
18653;SDS011;9456;47.824;16.228;2022-09-04T17:05:17;3.10;;;2.90;;
18653;SDS011;9456;47.824;16.228;2022-09-04T17:07:50;2.80;;;2.70;;
18653;SDS011;9456;47.824;16.228;2022-09-04T17:10:25;3.57;;;3.23;;
18653;SDS011;9456;47.824;16.228;2022-09-04T17:12:54;3.40;;;3.20;;
18653;SDS011;9456;47.824;16.228;2022-09-04T17:15:26;3.00;;;2.80;;
18653;SDS011;9456;47.824;16.228;2022-09-04T17:17:54;3.20;;;2.90;;
18653;SDS011;9456;47.824;16.228;2022-09-04T17:20:24;3.20;;;3.00;;
18653;SDS011;9456;47.824;16.228;2022-09-04T17:22:57;3.43;;;3.10;;
18653;SDS011;9456;47.824;16.228;2022-09-04T17:25:26;3.70;;;3.40;;
18653;SDS011;9456;47.824;16.228;2022-09-04T17:27:59;3.23;;;3.03;;
18653;SDS011;9456;47.824;16.228;2022-09-04T17:30:31;3.50;;;3.30;;
18653;SDS011;9456;47.824;16.228;2022-09-04T17:33:02;3.33;;;3.13;;
18653;SDS011;9456;47.824;16.228;2022-09-04T17:35:34;3.90;;;3.60;;
18653;SDS011;9456;47.824;16.228;2022-09-04T17:38:07;3.17;;;2.97;;
18653;SDS011;9456;47.824;16.228;2022-09-04T17:40:42;3.30;;;3.10;;
18653;SDS011;9456;47.824;16.228;2022-09-04T17:43:16;3.77;;;3.37;;
18653;SDS011;9456;47.824;16.228;2022-09-04T17:45:53;3.40;;;3.20;;
18653;SDS011;9456;47.824;16.228;2022-09-04T17:48:26;6.37;;;3.50;;
18653;SDS011;9456;47.824;16.228;2022-09-04T17:50:56;3.70;;;3.40;;
18653;SDS011;9456;47.824;16.228;2022-09-04T17:53:26;4.07;;;3.77;;
18653;SDS011;9456;47.824;16.228;2022-09-04T17:55:55;4.17;;;3.87;;
18653;SDS011;9456;47.824;16.228;2022-09-04T17:58:25;4.73;;;4.43;;
18653;SDS011;9456;47.824;16.228;2022-09-04T18:00:57;4.80;;;4.50;;
18653;SDS011;9456;47.824;16.228;2022-09-04T18:03:30;5.43;;;5.03;;
18653;SDS011;9456;47.824;16.228;2022-09-04T18:06:01;4.87;;;4.47;;
18653;SDS011;9456;47.824;16.228;2022-09-04T18:08:33;5.20;;;4.77;;
18653;SDS011;9456;47.824;16.228;2022-09-04T18:11:06;5.30;;;5.00;;
18653;SDS011;9456;47.824;16.228;2022-09-04T18:13:38;5.70;;;5.30;;
18653;SDS011;9456;47.824;16.228;2022-09-04T18:16:09;6.67;;;5.90;;
18653;SDS011;9456;47.824;16.228;2022-09-04T18:18:41;6.17;;;5.77;;
18653;SDS011;9456;47.824;16.228;2022-09-04T18:21:14;6.03;;;5.53;;
18653;SDS011;9456;47.824;16.228;2022-09-04T18:23:51;5.93;;;5.53;;
18653;SDS011;9456;47.824;16.228;2022-09-04T18:26:24;5.80;;;5.40;;
18653;SDS011;9456;47.824;16.228;2022-09-04T18:28:53;6.70;;;6.20;;
18653;SDS011;9456;47.824;16.228;2022-09-04T18:31:26;10.73;;;6.90;;
18653;SDS011;9456;47.824;16.228;2022-09-04T18:36:43;6.00;;;5.60;;
18653;SDS011;9456;47.824;16.228;2022-09-04T18:39:22;6.70;;;6.13;;
18653;SDS011;9456;47.824;16.228;2022-09-04T18:41:56;6.40;;;5.87;;
18653;SDS011;9456;47.824;16.228;2022-09-04T18:44:37;6.83;;;6.33;;
18653;SDS011;9456;47.824;16.228;2022-09-04T18:49:52;6.93;;;6.43;;
18653;SDS011;9456;47.824;16.228;2022-09-04T18:52:22;6.37;;;5.93;;
18653;SDS011;9456;47.824;16.228;2022-09-04T18:54:52;6.20;;;5.80;;
18653;SDS011;9456;47.824;16.228;2022-09-04T18:57:22;6.67;;;6.07;;
18653;SDS011;9456;47.824;16.228;2022-09-04T18:59:53;5.93;;;5.53;;
18653;SDS011;9456;47.824;16.228;2022-09-04T19:02:24;6.10;;;5.60;;
18653;SDS011;9456;47.824;16.228;2022-09-04T19:04:54;5.77;;;5.30;;
18653;SDS011;9456;47.824;16.228;2022-09-04T19:07:24;6.13;;;5.70;;
18653;SDS011;9456;47.824;16.228;2022-09-04T19:27:29;5.87;;;5.47;;
18653;SDS011;9456;47.824;16.228;2022-09-04T19:36:03;5.77;;;5.30;;
18653;SDS011;9456;47.824;16.228;2022-09-04T19:50:29;6.37;;;5.87;;
